Pictou, Canada
Current Conditions -  °F | °C
As of 1:00 AM on Thursday 23 Oct 2014 (Local Time) from CYYG Reporting Station
Overcast Overcast  
Wind Chill: 43°   Ceiling: 10000
Heat Index: 48°   Visibility: 15mi
Dew Point: 43°   Wind: 12mph
Humidity: 82%   Direction: 50°NE
Pressure: 30.3"   Gusts: NA
Location:  45.67°N, 62.7°W
Report Text: CYYG 230400Z 05010KT 15SM SCT050 OVC100 09/06 A3030 RMK SC3AC5 SLP261
Loading
Personal Weather Stations






























Interactive Weather Map New forecast layout! Learn more

10-Day Weather Forecast

Advertisements
Track Severe Weather on mobile